Time;durP1;ratioP1;P1;durP2;ratioP2;P2;SDS_P1;SDS_P2;PMS_P1;PMS_P2;Temp;Humidity;BMP_temperature;BMP_pressure;BME280_temperature;BME280_humidity;BME280_pressure;Samples;Min_cycle;Max_cycle;Signal;HPM_P1;HPM_P2
2024/01/16 00:19:46;;;;;;;3.8;0.5;;;;;;;;;;;;;-84
2024/01/16 00:49:47;;;;;;;5.1;0.8;;;;;;;;;;;;;-83
2024/01/16 01:19:51;;;;;;;4.9;0.4;;;;;;;;;;;;;-83
2024/01/16 01:49:45;;;;;;;3.8;0.4;;;;;;;;;;;;;-81
2024/01/16 02:19:45;;;;;;;3.1;0.6;;;;;;;;;;;;;-83
2024/01/16 02:49:42;;;;;;;5.1;0.6;;;;;;;;;;;;;-84
2024/01/16 03:19:43;;;;;;;1.5;0.3;;;;;;;;;;;;;-83
2024/01/16 03:49:41;;;;;;;7.6;1.4;;;;;;;;;;;;;-83
2024/01/16 04:19:44;;;;;;;8.2;0.8;;;;;;;;;;;;;-84
2024/01/16 04:49:42;;;;;;;8.8;2.8;;;;;;;;;;;;;-83
2024/01/16 05:19:40;;;;;;;13.5;4.3;;;;;;;;;;;;;-83
2024/01/16 05:49:42;;;;;;;13.3;1.9;;;;;;;;;;;;;-84
2024/01/16 06:19:48;;;;;;;11.3;2;;;;;;;;;;;;;-84
2024/01/16 06:49:39;;;;;;;11.1;3.3;;;;;;;;;;;;;-84
2024/01/16 07:19:44;;;;;;;6.8;2.1;;;;;;;;;;;;;-84
2024/01/16 07:49:42;;;;;;;5.5;1.7;;;;;;;;;;;;;-83
2024/01/16 08:19:38;;;;;;;16.3;4.3;;;;;;;;;;;;;-84
2024/01/16 08:49:39;;;;;;;10.8;4.3;;;;;;;;;;;;;-82
2024/01/16 09:19:39;;;;;;;18.5;4.3;;;;;;;;;;;;;-83
2024/01/16 09:49:35;;;;;;;6.2;1.2;;;;;;;;;;;;;-83
2024/01/16 10:19:52;;;;;;;6.3;1.3;;;;;;;;;;;;;-85
2024/01/16 10:49:44;;;;;;;5.6;1.3;;;;;;;;;;;;;-83
2024/01/16 12:19:36;;;;;;;6.7;1.2;;;;;;;;;;;;;-84
2024/01/16 12:49:33;;;;;;;7.5;1.1;;;;;;;;;;;;;-84
2024/01/16 13:19:37;;;;;;;4.2;0.7;;;;;;;;;;;;;-82
2024/01/16 13:49:54;;;;;;;4.2;0.9;;;;;;;;;;;;;-84
2024/01/16 14:19:43;;;;;;;3.4;0.9;;;;;;;;;;;;;-84
2024/01/16 14:49:36;;;;;;;4;0.9;;;;;;;;;;;;;-84
2024/01/16 15:19:36;;;;;;;4.5;1.2;;;;;;;;;;;;;-84
2024/01/16 15:49:39;;;;;;;2.5;0.8;;;;;;;;;;;;;-85
2024/01/16 16:19:35;;;;;;;7.6;1.5;;;;;;;;;;;;;-79
2024/01/16 16:49:30;;;;;;;8.5;2.1;;;;;;;;;;;;;-79
2024/01/16 17:19:40;;;;;;;7;1.8;;;;;;;;;;;;;-79
2024/01/16 17:49:48;;;;;;;7.4;2.3;;;;;;;;;;;;;-80
2024/01/16 18:19:40;;;;;;;9.8;2.8;;;;;;;;;;;;;-80
2024/01/16 19:19:40;;;;;;;7.8;3;;;;;;;;;;;;;-79
2024/01/16 19:49:39;;;;;;;12.2;3.8;;;;;;;;;;;;;-79
2024/01/16 20:19:29;;;;;;;9.2;3.8;;;;;;;;;;;;;-80
2024/01/16 20:49:33;;;;;;;8.7;3.5;;;;;;;;;;;;;-80
2024/01/16 21:19:27;;;;;;;12.7;3.9;;;;;;;;;;;;;-79
2024/01/16 21:49:28;;;;;;;9.5;3.7;;;;;;;;;;;;;-80
2024/01/16 22:19:27;;;;;;;11.4;5;;;;;;;;;;;;;-80
2024/01/16 22:49:28;;;;;;;13.8;5.6;;;;;;;;;;;;;-79
2024/01/16 23:19:23;;;;;;;17.5;6.8;;;;;;;;;;;;;-79
2024/01/16 23:49:24;;;;;;;16.5;7.8;;;;;;;;;;;;;-78
